createdAt,value
2022-10-14T00:00:46.753Z,7.01
2022-10-14T00:03:18.769Z,6.98
2022-10-14T00:05:50.808Z,6.98
2022-10-14T00:08:23.168Z,6.99
2022-10-14T00:10:55.166Z,6.98
2022-10-14T00:13:27.268Z,6.98
2022-10-14T00:15:59.457Z,6.99
2022-10-14T00:18:32.739Z,6.99
2022-10-14T00:21:04.839Z,7.01
2022-10-14T00:23:38.649Z,7.00
2022-10-14T00:26:16.278Z,6.98
2022-10-14T00:28:49.348Z,6.97
2022-10-14T00:31:22.224Z,6.99
2022-10-14T00:33:54.139Z,6.97
2022-10-14T00:36:26.979Z,6.96
2022-10-14T00:38:59.004Z,6.95
2022-10-14T00:41:33.486Z,6.95
2022-10-14T00:44:09.020Z,6.96
2022-10-14T00:46:43.387Z,7.14
2022-10-14T00:49:28.902Z,6.96
2022-10-14T00:52:03.845Z,6.90
2022-10-14T00:54:38.940Z,6.88
2022-10-14T00:57:12.310Z,6.85
2022-10-14T00:59:44.223Z,6.84
2022-10-14T01:02:16.147Z,6.80
2022-10-14T01:04:50.031Z,6.77
2022-10-14T01:07:27.731Z,6.76
2022-10-14T01:10:08.512Z,6.74
2022-10-14T01:12:58.691Z,6.73
2022-10-14T01:15:39.512Z,6.74
2022-10-14T01:18:23.127Z,6.75
2022-10-14T01:21:13.083Z,6.77
2022-10-14T01:23:56.906Z,6.75
2022-10-14T01:27:00.072Z,6.74
2022-10-14T01:29:54.567Z,6.73
2022-10-14T01:32:33.307Z,6.68
2022-10-14T01:35:26.119Z,6.62
2022-10-14T01:38:01.044Z,6.57
2022-10-14T01:40:42.069Z,6.51
2022-10-14T01:43:15.336Z,6.44
2022-10-14T01:45:50.583Z,6.36
2022-10-14T01:48:25.582Z,6.31
2022-10-14T01:51:01.039Z,6.23
2022-10-14T01:53:38.954Z,6.15
2022-10-14T01:56:12.817Z,6.04
2022-10-14T01:58:46.783Z,5.94
2022-10-14T02:01:20.664Z,5.82
2022-10-14T02:03:52.680Z,5.69
2022-10-14T02:06:33.455Z,5.60
2022-10-14T02:09:26.371Z,5.50
2022-10-14T02:12:20.580Z,5.41
2022-10-14T02:15:27.928Z,5.32
2022-10-14T02:18:02.884Z,5.25
2022-10-14T02:21:10.409Z,5.16
2022-10-14T02:23:48.108Z,5.09
2022-10-14T02:26:21.974Z,5.00
2022-10-14T02:28:56.285Z,4.93
2022-10-14T02:31:30.453Z,4.88
2022-10-14T02:34:05.333Z,4.84
2022-10-14T02:36:37.924Z,4.81
2022-10-14T02:39:12.930Z,4.82
2022-10-14T02:41:44.869Z,4.81
2022-10-14T02:44:16.932Z,4.82
2022-10-14T02:46:50.859Z,4.84
2022-10-14T02:49:23.215Z,4.87
2022-10-14T02:51:55.343Z,4.88
2022-10-14T02:54:27.339Z,4.85
2022-10-14T02:57:01.046Z,4.81
2022-10-14T02:59:33.032Z,4.77
2022-10-14T03:02:05.156Z,4.74
2022-10-14T03:04:37.737Z,4.71
2022-10-14T03:07:09.940Z,4.68
2022-10-14T03:09:43.716Z,4.66
2022-10-14T03:12:16.296Z,4.65
2022-10-14T03:14:49.041Z,4.64
2022-10-14T03:17:22.342Z,4.61
2022-10-14T03:19:54.845Z,4.57
2022-10-14T03:22:28.959Z,4.58
2022-10-14T03:25:01.792Z,4.56
2022-10-14T03:27:47.444Z,4.60
2022-10-14T03:30:19.543Z,4.60
2022-10-14T03:32:53.151Z,4.63
2022-10-14T03:35:28.515Z,4.64
2022-10-14T03:38:02.321Z,4.60
2022-10-14T03:40:35.515Z,4.59
2022-10-14T03:43:09.069Z,4.59
2022-10-14T03:45:42.671Z,4.56
2022-10-14T03:48:15.481Z,4.56
2022-10-14T03:50:49.384Z,4.53
2022-10-14T03:53:23.153Z,4.54
2022-10-14T03:55:55.443Z,4.51
2022-10-14T03:58:27.745Z,4.47
2022-10-14T04:01:01.502Z,4.44
2022-10-14T04:03:35.190Z,4.41
2022-10-14T04:06:07.192Z,4.40
2022-10-14T04:08:41.360Z,4.37
2022-10-14T04:11:15.269Z,4.40
2022-10-14T04:13:47.713Z,4.43
2022-10-14T04:16:20.936Z,4.43
2022-10-14T04:19:07.054Z,4.42
2022-10-14T04:21:39.356Z,4.43
2022-10-14T04:24:13.031Z,4.43
2022-10-14T04:26:53.420Z,4.45
2022-10-14T04:29:26.718Z,4.52
2022-10-14T04:32:00.187Z,4.70
2022-10-14T04:34:33.969Z,4.68
2022-10-14T04:37:06.091Z,4.79
2022-10-14T04:39:51.763Z,4.96
2022-10-14T04:42:24.294Z,5.21
2022-10-14T04:44:58.450Z,5.57
2022-10-14T04:47:33.143Z,5.96
2022-10-14T04:50:06.133Z,6.59
2022-10-14T04:52:39.778Z,6.87
2022-10-14T04:55:13.805Z,7.35
2022-10-14T04:57:46.844Z,7.50
2022-10-14T05:00:19.717Z,7.48
2022-10-14T05:02:53.415Z,7.52
2022-10-14T05:05:27.157Z,7.88
2022-10-14T05:08:01.446Z,8.69
2022-10-14T05:10:44.485Z,9.50
2022-10-14T05:13:18.474Z,10.05
2022-10-14T05:15:55.094Z,10.04
2022-10-14T05:18:27.798Z,10.29
2022-10-14T05:21:04.247Z,10.40
2022-10-14T05:23:56.280Z,10.80
2022-10-14T05:26:29.378Z,11.04
2022-10-14T05:29:02.782Z,11.35
2022-10-14T05:31:35.204Z,11.63
2022-10-14T05:34:10.151Z,11.65
2022-10-14T05:36:43.686Z,11.51
2022-10-14T05:39:15.979Z,11.64
2022-10-14T05:41:48.546Z,12.11
2022-10-14T05:44:22.558Z,12.16
2022-10-14T05:46:54.908Z,12.19
2022-10-14T05:49:29.361Z,12.57
2022-10-14T05:52:03.183Z,13.10
2022-10-14T05:54:35.634Z,14.13
2022-10-14T05:57:08.163Z,14.66
2022-10-14T05:59:40.780Z,15.04
2022-10-14T06:02:13.169Z,14.87
2022-10-14T06:04:48.701Z,14.86
2022-10-14T06:07:21.046Z,14.54
2022-10-14T06:09:53.325Z,14.01
2022-10-14T06:12:25.508Z,13.41
2022-10-14T06:14:58.488Z,12.93
2022-10-14T06:17:32.298Z,13.04
2022-10-14T06:20:04.072Z,13.53
2022-10-14T06:22:35.671Z,13.27
2022-10-14T06:25:08.063Z,13.36
2022-10-14T06:27:40.453Z,13.05
2022-10-14T06:30:13.722Z,12.50
2022-10-14T06:32:45.979Z,11.90
2022-10-14T06:35:18.369Z,11.38
2022-10-14T06:37:50.758Z,10.91
2022-10-14T06:40:23.165Z,10.55
2022-10-14T06:42:55.567Z,10.28
2022-10-14T06:45:27.521Z,10.11
2022-10-14T06:47:59.736Z,9.97
2022-10-14T06:50:31.569Z,9.86
2022-10-14T06:53:03.568Z,9.78
2022-10-14T06:55:36.005Z,9.68
2022-10-14T06:58:08.373Z,9.62
2022-10-14T07:00:44.292Z,9.54
2022-10-14T07:03:14.131Z,9.47
2022-10-14T07:05:46.204Z,9.43
2022-10-14T07:08:18.435Z,9.39
2022-10-14T07:10:50.584Z,9.40
2022-10-14T07:13:22.994Z,9.39
2022-10-14T07:15:55.096Z,9.39
2022-10-14T07:18:27.251Z,9.38
2022-10-14T07:21:07.262Z,9.42
2022-10-14T07:23:39.622Z,9.48
2022-10-14T07:26:11.558Z,9.55
2022-10-14T07:28:43.615Z,9.64
2022-10-14T07:31:16.138Z,9.71
2022-10-14T07:33:48.139Z,9.79
2022-10-14T07:36:22.616Z,9.84
2022-10-14T07:38:54.864Z,9.90
2022-10-14T07:41:28.122Z,9.95
2022-10-14T07:44:05.387Z,9.95
2022-10-14T07:46:40.856Z,9.96
2022-10-14T07:49:16.046Z,9.94
2022-10-14T07:51:49.383Z,9.96
2022-10-14T07:54:24.604Z,9.98
2022-10-14T07:56:58.142Z,9.99
2022-10-14T07:59:30.431Z,10.00
2022-10-14T08:02:02.802Z,10.03
2022-10-14T08:04:34.922Z,10.06
2022-10-14T08:07:07.088Z,10.06
2022-10-14T08:09:40.109Z,10.07
2022-10-14T08:12:12.842Z,10.07
2022-10-14T08:14:45.757Z,10.08
2022-10-14T08:17:18.019Z,10.11
2022-10-14T08:19:52.433Z,10.12
2022-10-14T08:22:25.254Z,10.14
2022-10-14T08:24:57.850Z,10.12
2022-10-14T08:27:29.993Z,10.07
2022-10-14T08:30:04.055Z,10.06
2022-10-14T08:32:35.920Z,10.07
2022-10-14T08:35:09.003Z,10.08
2022-10-14T08:37:41.115Z,10.11
2022-10-14T08:40:16.562Z,10.17
2022-10-14T08:43:00.897Z,10.23
2022-10-14T08:45:38.713Z,10.28
2022-10-14T08:48:16.430Z,10.36
2022-10-14T08:50:54.492Z,10.33
2022-10-14T08:53:29.781Z,10.30
2022-10-14T08:56:04.303Z,10.29
2022-10-14T08:58:42.600Z,10.29
2022-10-14T09:01:26.079Z,10.33
2022-10-14T09:04:10.637Z,10.35
2022-10-14T09:06:45.523Z,10.39
2022-10-14T09:09:38.300Z,10.39
2022-10-14T09:12:16.157Z,10.40
2022-10-14T09:14:51.133Z,10.42
2022-10-14T09:17:31.584Z,10.46
2022-10-14T09:20:05.800Z,10.48
2022-10-14T09:22:37.978Z,10.51
2022-10-14T09:25:17.842Z,10.56
2022-10-14T09:27:50.581Z,10.60
2022-10-14T09:30:22.755Z,10.67
2022-10-14T09:32:56.343Z,10.71
2022-10-14T09:35:34.203Z,10.69
2022-10-14T09:38:07.380Z,10.65
2022-10-14T09:40:47.988Z,10.65
2022-10-14T09:43:23.499Z,10.71
2022-10-14T09:46:01.332Z,10.74
2022-10-14T09:48:42.222Z,10.77
2022-10-14T09:51:29.100Z,10.71
2022-10-14T09:54:04.397Z,10.68
2022-10-14T09:56:42.117Z,10.66
2022-10-14T09:59:20.802Z,10.70
2022-10-14T10:02:05.574Z,10.75
2022-10-14T10:04:47.058Z,10.75
2022-10-14T10:07:33.591Z,10.73
2022-10-14T10:10:20.653Z,10.75
2022-10-14T10:12:52.986Z,10.71
2022-10-14T10:15:25.837Z,10.71
2022-10-14T10:17:57.964Z,10.74
2022-10-14T10:20:36.156Z,10.79
2022-10-14T10:23:29.704Z,10.89
2022-10-14T10:26:21.126Z,11.00
2022-10-14T10:28:54.655Z,11.12
2022-10-14T10:31:38.522Z,11.16
2022-10-14T10:34:34.792Z,11.11
2022-10-14T10:37:31.194Z,11.07
2022-10-14T10:40:22.576Z,11.01
2022-10-14T10:43:06.461Z,10.96
2022-10-14T10:46:02.651Z,10.92
2022-10-14T10:48:43.472Z,10.88
2022-10-14T10:51:25.858Z,10.87
2022-10-14T10:54:09.594Z,10.80
2022-10-14T10:56:53.484Z,10.75
2022-10-14T10:59:47.691Z,10.67
2022-10-14T11:02:43.485Z,10.52
2022-10-14T11:05:23.473Z,10.40
2022-10-14T11:08:26.714Z,10.36
2022-10-14T11:11:31.492Z,10.33
2022-10-14T11:14:25.946Z,10.31
2022-10-14T11:17:16.223Z,10.31
2022-10-14T11:19:58.520Z,10.29
2022-10-14T11:22:51.458Z,10.25
2022-10-14T11:25:35.509Z,10.24
2022-10-14T11:28:13.583Z,10.16
2022-10-14T11:31:03.581Z,10.13
2022-10-14T11:34:02.482Z,9.98
2022-10-14T11:37:10.979Z,9.91
2022-10-14T11:39:48.832Z,9.86
2022-10-14T11:42:38.909Z,9.82
2022-10-14T11:45:32.365Z,9.74
2022-10-14T11:48:36.319Z,9.64
2022-10-14T11:51:35.838Z,9.58
2022-10-14T11:54:11.654Z,9.58
2022-10-14T11:56:52.492Z,9.56
2022-10-14T11:59:50.347Z,9.57
2022-10-14T12:02:42.602Z,9.55
2022-10-14T12:05:41.730Z,9.48
2022-10-14T12:08:33.170Z,9.38
2022-10-14T12:11:09.828Z,9.34
2022-10-14T12:13:52.365Z,9.34
2022-10-14T12:16:25.703Z,9.38
2022-10-14T12:18:58.676Z,9.43
2022-10-14T12:21:33.236Z,9.45
2022-10-14T12:24:11.009Z,9.64
2022-10-14T12:26:59.257Z,9.53
2022-10-14T12:29:35.077Z,9.58
2022-10-14T12:32:10.758Z,9.77
2022-10-14T12:34:44.343Z,10.15
2022-10-14T12:37:35.763Z,11.03
2022-10-14T12:40:16.882Z,12.57
2022-10-14T12:43:06.496Z,14.58
2022-10-14T12:45:38.539Z,16.55
2022-10-14T12:48:19.488Z,18.37
2022-10-14T12:50:57.394Z,19.54
2022-10-14T12:53:32.773Z,20.16
2022-10-14T12:56:07.627Z,20.09
2022-10-14T12:58:40.383Z,20.33
2022-10-14T13:01:22.597Z,20.43
2022-10-14T13:06:40.676Z,16.99
2022-10-14T13:09:18.839Z,15.76
2022-10-14T13:11:56.551Z,14.78
2022-10-14T13:14:32.365Z,14.02
2022-10-14T13:17:05.300Z,13.39
2022-10-14T13:19:40.324Z,12.83
2022-10-14T13:22:34.619Z,12.37
2022-10-14T13:25:18.650Z,12.03
2022-10-14T13:27:55.289Z,11.66
2022-10-14T13:30:39.250Z,11.37
2022-10-14T13:33:20.045Z,11.16
2022-10-14T13:36:12.979Z,10.98
2022-10-14T13:38:48.286Z,10.70
2022-10-14T13:41:30.898Z,10.43
2022-10-14T13:44:02.190Z,10.23
2022-10-14T13:46:40.048Z,10.06
2022-10-14T13:49:17.850Z,9.95
2022-10-14T13:51:53.866Z,9.81
2022-10-14T13:54:30.503Z,9.73
2022-10-14T14:00:33.156Z,9.55
2022-10-14T14:02:28.950Z,9.48
2022-10-14T14:05:01.613Z,9.42
2022-10-14T14:10:12.309Z,9.30
2022-10-14T14:12:45.587Z,9.28
2022-10-14T14:15:20.422Z,9.23
2022-10-14T14:17:52.658Z,9.21
2022-10-14T14:20:28.344Z,9.16
2022-10-14T14:23:00.938Z,9.16
2022-10-14T14:25:36.913Z,9.11
2022-10-14T14:28:15.742Z,9.08
2022-10-14T14:30:55.881Z,9.04
2022-10-14T14:33:31.058Z,8.95
2022-10-14T14:36:18.129Z,8.92
2022-10-14T14:38:58.076Z,8.86
2022-10-14T14:41:32.446Z,8.82
2022-10-14T14:44:24.523Z,8.78
2022-10-14T14:46:42.211Z,8.72
2022-10-14T14:49:17.368Z,8.67
2022-10-14T14:51:49.714Z,8.66
2022-10-14T14:54:24.491Z,8.67
2022-10-14T14:56:59.689Z,8.63
2022-10-14T14:59:35.590Z,8.65
2022-10-14T15:02:13.551Z,8.65
2022-10-14T15:04:48.401Z,8.70
2022-10-14T15:07:22.896Z,8.69
2022-10-14T15:09:55.689Z,8.71
2022-10-14T15:12:39.470Z,8.85
2022-10-14T15:15:31.103Z,8.69
2022-10-14T15:18:24.077Z,8.65
2022-10-14T15:21:17.197Z,8.65
2022-10-14T15:23:56.323Z,8.64
2022-10-14T15:26:34.660Z,8.67
2022-10-14T15:29:18.870Z,8.67
2022-10-14T15:32:08.897Z,8.72
2022-10-14T15:34:41.768Z,8.77
2022-10-14T15:37:15.346Z,8.82
2022-10-14T15:39:47.241Z,8.83
2022-10-14T15:42:19.721Z,8.85
2022-10-14T15:44:52.183Z,8.90
2022-10-14T15:47:25.547Z,8.93
2022-10-14T15:49:59.013Z,8.98
2022-10-14T15:52:33.121Z,8.99
2022-10-14T15:55:17.244Z,9.01
2022-10-14T15:57:50.326Z,9.04
2022-10-14T16:00:26.111Z,9.09
2022-10-14T16:03:01.110Z,9.11
2022-10-14T16:05:33.668Z,9.14
2022-10-14T16:08:08.816Z,9.18
2022-10-14T16:10:41.549Z,9.18
2022-10-14T16:13:14.042Z,9.21
2022-10-14T16:15:49.307Z,9.21
2022-10-14T16:18:24.424Z,9.23
2022-10-14T16:20:58.112Z,9.24
2022-10-14T16:23:33.319Z,9.27
2022-10-14T16:26:04.792Z,9.28
2022-10-14T16:28:37.286Z,9.31
2022-10-14T16:31:12.495Z,9.31
2022-10-14T16:33:45.918Z,9.35
2022-10-14T16:36:19.366Z,9.36
2022-10-14T16:38:51.592Z,9.39
2022-10-14T16:41:24.451Z,9.41
2022-10-14T16:43:56.770Z,9.41
2022-10-14T16:46:46.570Z,9.45
2022-10-14T16:49:19.261Z,9.46
2022-10-14T16:51:52.039Z,9.47
2022-10-14T16:54:24.796Z,9.49
2022-10-14T16:56:57.057Z,9.55
2022-10-14T16:59:30.869Z,9.57
2022-10-14T17:02:04.237Z,9.61
2022-10-14T17:04:36.493Z,9.63
2022-10-14T17:07:09.165Z,9.63
2022-10-14T17:09:41.075Z,9.64
2022-10-14T17:12:14.276Z,9.63
2022-10-14T17:14:46.624Z,9.63
2022-10-14T17:17:19.066Z,9.63
2022-10-14T17:19:53.105Z,9.63
2022-10-14T17:22:25.385Z,9.66
2022-10-14T17:24:57.558Z,9.82
2022-10-14T17:27:29.571Z,9.69
2022-10-14T17:30:01.643Z,9.66
2022-10-14T17:32:33.741Z,9.65
2022-10-14T17:35:07.536Z,9.63
2022-10-14T17:37:42.373Z,9.62
2022-10-14T17:40:14.530Z,9.63
2022-10-14T17:42:46.726Z,9.64
2022-10-14T17:45:19.826Z,9.66
2022-10-14T17:47:52.008Z,9.67
2022-10-14T17:50:24.408Z,9.67
2022-10-14T17:52:58.465Z,9.68
2022-10-14T17:55:30.927Z,9.69
2022-10-14T17:58:03.354Z,9.69
2022-10-14T18:00:35.759Z,9.68
2022-10-14T18:03:11.281Z,9.66
2022-10-14T18:05:48.010Z,9.68
2022-10-14T18:08:19.298Z,9.70
2022-10-14T18:10:51.567Z,9.67
2022-10-14T18:13:23.749Z,9.65
2022-10-14T18:15:56.466Z,9.62
2022-10-14T18:18:29.229Z,9.63
2022-10-14T18:21:03.101Z,9.66
2022-10-14T18:23:40.605Z,9.66
2022-10-14T18:26:15.310Z,9.68
2022-10-14T18:28:50.143Z,9.66
2022-10-14T18:31:25.239Z,9.66
2022-10-14T18:34:04.803Z,9.66
2022-10-14T18:36:42.203Z,9.68
2022-10-14T18:39:21.661Z,9.72
2022-10-14T18:41:53.683Z,9.74
2022-10-14T18:44:26.043Z,9.71
2022-10-14T18:46:58.327Z,9.69
2022-10-14T18:49:30.869Z,9.68
2022-10-14T18:52:02.937Z,9.69
2022-10-14T18:54:35.391Z,9.71
2022-10-14T18:57:07.416Z,9.69
2022-10-14T18:59:39.319Z,9.69
2022-10-14T19:02:14.278Z,9.69
2022-10-14T19:04:46.256Z,9.68
2022-10-14T19:07:18.132Z,9.67
2022-10-14T19:09:51.912Z,9.66
2022-10-14T19:12:42.311Z,9.66
2022-10-14T19:15:14.288Z,9.67
2022-10-14T19:17:50.884Z,9.64
2022-10-14T19:20:21.876Z,9.64
2022-10-14T19:22:56.667Z,9.64
2022-10-14T19:25:27.483Z,9.61
2022-10-14T19:27:59.798Z,9.62
2022-10-14T19:30:31.867Z,9.59
2022-10-14T19:33:03.862Z,9.55
2022-10-14T19:35:35.998Z,9.54
2022-10-14T19:38:07.930Z,9.49
2022-10-14T19:40:39.928Z,9.46
2022-10-14T19:43:12.182Z,9.47
2022-10-14T19:45:45.788Z,9.45
2022-10-14T19:48:17.877Z,9.43
2022-10-14T19:50:50.090Z,9.42
2022-10-14T19:53:22.197Z,9.40
2022-10-14T19:55:54.480Z,9.41
2022-10-14T19:58:26.598Z,9.43
2022-10-14T20:00:58.803Z,9.42
2022-10-14T20:03:30.858Z,9.42
2022-10-14T20:06:03.507Z,9.40
2022-10-14T20:08:35.761Z,9.39
2022-10-14T20:11:10.229Z,9.40
2022-10-14T20:13:41.974Z,9.37
2022-10-14T20:16:14.768Z,9.53
2022-10-14T20:18:46.702Z,9.34
2022-10-14T20:21:18.752Z,9.31
2022-10-14T20:23:50.767Z,9.28
2022-10-14T20:26:23.486Z,9.26
2022-10-14T20:28:55.547Z,9.24
2022-10-14T20:31:27.648Z,9.22
2022-10-14T20:33:59.503Z,9.21
2022-10-14T20:36:31.467Z,9.19
2022-10-14T20:39:03.474Z,9.17
2022-10-14T20:41:35.648Z,9.14
2022-10-14T20:44:07.587Z,9.11
2022-10-14T20:46:39.525Z,9.07
2022-10-14T20:49:11.588Z,9.03
2022-10-14T20:51:43.567Z,9.01
2022-10-14T20:54:15.608Z,8.99
2022-10-14T20:56:47.585Z,8.94
2022-10-14T20:59:19.823Z,8.92
2022-10-14T21:01:51.806Z,8.92
2022-10-14T21:04:23.945Z,8.91
2022-10-14T21:06:55.961Z,8.94
2022-10-14T21:09:28.049Z,8.94
2022-10-14T21:11:59.914Z,8.99
2022-10-14T21:14:32.133Z,8.99
2022-10-14T21:17:04.094Z,9.00
2022-10-14T21:19:36.521Z,8.98
2022-10-14T21:22:09.814Z,8.97
2022-10-14T21:24:41.936Z,8.94
2022-10-14T21:27:13.861Z,8.97
2022-10-14T21:29:46.088Z,8.93
2022-10-14T21:32:18.105Z,8.91
2022-10-14T21:34:50.046Z,8.94
2022-10-14T21:37:22.334Z,8.93
2022-10-14T21:39:54.240Z,8.92
2022-10-14T21:42:43.652Z,8.92
2022-10-14T21:45:15.785Z,8.94
2022-10-14T21:47:47.976Z,8.95
2022-10-14T21:50:20.846Z,8.95
2022-10-14T21:52:52.739Z,8.95
2022-10-14T21:55:24.695Z,8.92
2022-10-14T21:57:59.303Z,8.91
2022-10-14T22:00:31.180Z,8.92
2022-10-14T22:03:03.070Z,8.88
2022-10-14T22:05:35.616Z,8.86
2022-10-14T22:08:07.726Z,8.87
2022-10-14T22:10:43.863Z,8.87
2022-10-14T22:13:15.862Z,8.86
2022-10-14T22:15:48.157Z,8.86
2022-10-14T22:18:20.182Z,8.86
2022-10-14T22:20:54.129Z,8.85
2022-10-14T22:23:26.179Z,8.86
2022-10-14T22:26:01.042Z,8.86
2022-10-14T22:28:33.293Z,8.84
2022-10-14T22:31:14.478Z,8.85
2022-10-14T22:33:46.984Z,8.86
2022-10-14T22:36:24.868Z,8.89
2022-10-14T22:38:58.379Z,8.88
2022-10-14T22:41:35.184Z,8.87
2022-10-14T22:44:05.882Z,8.86
2022-10-14T22:46:39.330Z,8.86
2022-10-14T22:49:11.364Z,8.85
2022-10-14T22:51:43.399Z,8.84
2022-10-14T22:54:15.366Z,8.84
2022-10-14T22:56:47.296Z,8.84
2022-10-14T22:59:19.230Z,8.85
2022-10-14T23:01:51.148Z,8.87
2022-10-14T23:04:23.161Z,8.87
2022-10-14T23:06:55.178Z,8.87
2022-10-14T23:09:27.383Z,8.87
2022-10-14T23:11:59.538Z,8.85
2022-10-14T23:14:31.542Z,8.85
2022-10-14T23:17:04.027Z,8.84
2022-10-14T23:19:36.178Z,8.81
2022-10-14T23:22:08.347Z,8.80
2022-10-14T23:24:40.353Z,8.80
2022-10-14T23:27:12.228Z,8.78
2022-10-14T23:29:44.185Z,8.78
2022-10-14T23:32:16.228Z,8.77
2022-10-14T23:34:48.502Z,8.78
2022-10-14T23:37:20.532Z,8.79
2022-10-14T23:39:52.709Z,8.78
2022-10-14T23:42:24.763Z,8.78
2022-10-14T23:44:56.719Z,8.77
2022-10-14T23:47:28.608Z,8.77
2022-10-14T23:50:00.587Z,8.77
2022-10-14T23:52:33.401Z,8.77
2022-10-14T23:55:05.945Z,8.77
2022-10-14T23:57:37.886Z,8.76
